sensor_id;sensor_type;location;lat;lon;timestamp;temperature;humidity
6375;DHT22;35400;45.472;-122.822;2022-08-25T00:02:05;33.30;67.60
6375;DHT22;35400;45.472;-122.822;2022-08-25T00:04:32;33.30;66.70
6375;DHT22;35400;45.472;-122.822;2022-08-25T00:07:01;33.30;67.20
6375;DHT22;35400;45.472;-122.822;2022-08-25T00:09:28;33.20;66.60
6375;DHT22;35400;45.472;-122.822;2022-08-25T00:11:56;33.20;67.30
6375;DHT22;35400;45.472;-122.822;2022-08-25T00:14:35;33.20;67.50
6375;DHT22;35400;45.472;-122.822;2022-08-25T00:17:03;33.30;66.80
6375;DHT22;35400;45.472;-122.822;2022-08-25T00:19:33;33.20;66.10
6375;DHT22;35400;45.472;-122.822;2022-08-25T00:22:02;33.20;66.20
6375;DHT22;35400;45.472;-122.822;2022-08-25T00:24:29;33.20;65.60
6375;DHT22;35400;45.472;-122.822;2022-08-25T00:26:58;33.20;66.60
6375;DHT22;35400;45.472;-122.822;2022-08-25T00:29:28;33.20;65.50
6375;DHT22;35400;45.472;-122.822;2022-08-25T00:31:55;33.20;66.00
6375;DHT22;35400;45.472;-122.822;2022-08-25T00:34:34;33.20;65.20
6375;DHT22;35400;45.472;-122.822;2022-08-25T00:37:05;33.20;66.10
6375;DHT22;35400;45.472;-122.822;2022-08-25T00:39:33;33.20;66.00
6375;DHT22;35400;45.472;-122.822;2022-08-25T00:42:00;33.10;66.00
6375;DHT22;35400;45.472;-122.822;2022-08-25T00:44:30;33.10;66.00
6375;DHT22;35400;45.472;-122.822;2022-08-25T00:46:59;33.10;65.20
6375;DHT22;35400;45.472;-122.822;2022-08-25T00:49:39;33.10;65.90
6375;DHT22;35400;45.472;-122.822;2022-08-25T00:52:11;33.00;66.30
6375;DHT22;35400;45.472;-122.822;2022-08-25T00:54:43;32.90;63.90
6375;DHT22;35400;45.472;-122.822;2022-08-25T00:57:13;32.90;64.90
6375;DHT22;35400;45.472;-122.822;2022-08-25T00:59:40;32.90;66.00
6375;DHT22;35400;45.472;-122.822;2022-08-25T01:02:08;32.90;66.80
6375;DHT22;35400;45.472;-122.822;2022-08-25T01:04:35;32.90;67.00
6375;DHT22;35400;45.472;-122.822;2022-08-25T01:07:03;32.80;66.70
6375;DHT22;35400;45.472;-122.822;2022-08-25T01:09:31;32.80;66.70
6375;DHT22;35400;45.472;-122.822;2022-08-25T01:11:59;32.70;67.00
6375;DHT22;35400;45.472;-122.822;2022-08-25T01:14:27;32.80;67.60
6375;DHT22;35400;45.472;-122.822;2022-08-25T01:16:56;32.70;66.90
6375;DHT22;35400;45.472;-122.822;2022-08-25T01:19:25;32.70;66.80
6375;DHT22;35400;45.472;-122.822;2022-08-25T01:21:53;32.70;67.10
6375;DHT22;35400;45.472;-122.822;2022-08-25T01:24:43;32.60;67.50
6375;DHT22;35400;45.472;-122.822;2022-08-25T01:27:12;32.60;67.30
6375;DHT22;35400;45.472;-122.822;2022-08-25T01:29:39;32.60;67.80
6375;DHT22;35400;45.472;-122.822;2022-08-25T01:32:09;32.50;67.90
6375;DHT22;35400;45.472;-122.822;2022-08-25T01:34:37;32.50;67.50
6375;DHT22;35400;45.472;-122.822;2022-08-25T01:37:07;32.40;68.10
6375;DHT22;35400;45.472;-122.822;2022-08-25T01:39:34;32.40;67.30
6375;DHT22;35400;45.472;-122.822;2022-08-25T01:44:44;32.30;66.70
6375;DHT22;35400;45.472;-122.822;2022-08-25T01:47:12;32.30;66.80
6375;DHT22;35400;45.472;-122.822;2022-08-25T01:49:39;32.20;66.70
6375;DHT22;35400;45.472;-122.822;2022-08-25T01:52:22;32.10;66.40
6375;DHT22;35400;45.472;-122.822;2022-08-25T01:54:50;32.00;66.80
6375;DHT22;35400;45.472;-122.822;2022-08-25T01:57:17;32.00;67.00
6375;DHT22;35400;45.472;-122.822;2022-08-25T01:59:44;31.90;66.70
6375;DHT22;35400;45.472;-122.822;2022-08-25T02:02:11;31.80;65.30
6375;DHT22;35400;45.472;-122.822;2022-08-25T02:04:38;31.80;64.60
6375;DHT22;35400;45.472;-122.822;2022-08-25T02:07:06;31.70;65.30
6375;DHT22;35400;45.472;-122.822;2022-08-25T02:09:34;31.60;65.40
6375;DHT22;35400;45.472;-122.822;2022-08-25T02:12:01;31.60;65.10
6375;DHT22;35400;45.472;-122.822;2022-08-25T02:14:28;31.50;65.30
6375;DHT22;35400;45.472;-122.822;2022-08-25T02:16:55;31.50;65.70
6375;DHT22;35400;45.472;-122.822;2022-08-25T02:19:23;31.40;65.40
6375;DHT22;35400;45.472;-122.822;2022-08-25T02:21:51;31.40;65.10
6375;DHT22;35400;45.472;-122.822;2022-08-25T02:24:18;31.30;64.20
6375;DHT22;35400;45.472;-122.822;2022-08-25T02:26:45;31.20;64.60
6375;DHT22;35400;45.472;-122.822;2022-08-25T02:29:12;31.20;65.00
6375;DHT22;35400;45.472;-122.822;2022-08-25T02:31:40;31.10;65.60
6375;DHT22;35400;45.472;-122.822;2022-08-25T02:34:07;31.00;65.30
6375;DHT22;35400;45.472;-122.822;2022-08-25T02:36:35;30.90;65.40
6375;DHT22;35400;45.472;-122.822;2022-08-25T02:39:04;30.90;65.70
6375;DHT22;35400;45.472;-122.822;2022-08-25T02:41:31;30.80;65.60
6375;DHT22;35400;45.472;-122.822;2022-08-25T02:44:00;30.80;65.40
6375;DHT22;35400;45.472;-122.822;2022-08-25T02:46:26;30.70;65.90
6375;DHT22;35400;45.472;-122.822;2022-08-25T02:48:53;30.70;65.70
6375;DHT22;35400;45.472;-122.822;2022-08-25T02:51:22;30.60;65.60
6375;DHT22;35400;45.472;-122.822;2022-08-25T02:53:51;30.60;65.40
6375;DHT22;35400;45.472;-122.822;2022-08-25T02:56:18;30.50;65.50
6375;DHT22;35400;45.472;-122.822;2022-08-25T02:58:46;30.40;65.90
6375;DHT22;35400;45.472;-122.822;2022-08-25T03:01:14;30.40;65.80
6375;DHT22;35400;45.472;-122.822;2022-08-25T03:03:43;30.30;65.60
6375;DHT22;35400;45.472;-122.822;2022-08-25T03:06:13;30.30;65.80
6375;DHT22;35400;45.472;-122.822;2022-08-25T03:08:41;30.30;65.80
6375;DHT22;35400;45.472;-122.822;2022-08-25T03:11:08;30.20;66.10
6375;DHT22;35400;45.472;-122.822;2022-08-25T03:13:35;30.20;66.50
6375;DHT22;35400;45.472;-122.822;2022-08-25T03:16:05;30.10;66.80
6375;DHT22;35400;45.472;-122.822;2022-08-25T03:18:32;30.00;66.80
6375;DHT22;35400;45.472;-122.822;2022-08-25T03:20:59;30.00;66.60
6375;DHT22;35400;45.472;-122.822;2022-08-25T03:23:25;29.90;66.90
6375;DHT22;35400;45.472;-122.822;2022-08-25T03:25:55;29.90;67.50
6375;DHT22;35400;45.472;-122.822;2022-08-25T03:28:41;29.80;67.50
6375;DHT22;35400;45.472;-122.822;2022-08-25T03:31:08;29.80;67.90
6375;DHT22;35400;45.472;-122.822;2022-08-25T03:33:36;29.70;67.80
6375;DHT22;35400;45.472;-122.822;2022-08-25T03:36:04;29.60;68.10
6375;DHT22;35400;45.472;-122.822;2022-08-25T03:38:31;29.60;68.30
6375;DHT22;35400;45.472;-122.822;2022-08-25T03:40:58;29.60;68.50
6375;DHT22;35400;45.472;-122.822;2022-08-25T03:43:25;29.50;68.70
6375;DHT22;35400;45.472;-122.822;2022-08-25T03:45:51;29.50;68.90
6375;DHT22;35400;45.472;-122.822;2022-08-25T03:48:18;29.50;69.30
6375;DHT22;35400;45.472;-122.822;2022-08-25T03:50:50;29.40;69.40
6375;DHT22;35400;45.472;-122.822;2022-08-25T03:53:20;29.40;69.80
6375;DHT22;35400;45.472;-122.822;2022-08-25T03:55:47;29.30;70.00
6375;DHT22;35400;45.472;-122.822;2022-08-25T03:58:14;29.20;70.20
6375;DHT22;35400;45.472;-122.822;2022-08-25T04:00:41;29.20;70.60
6375;DHT22;35400;45.472;-122.822;2022-08-25T04:03:08;29.10;70.80
6375;DHT22;35400;45.472;-122.822;2022-08-25T04:05:35;29.00;70.80
6375;DHT22;35400;45.472;-122.822;2022-08-25T04:08:01;29.00;71.10
6375;DHT22;35400;45.472;-122.822;2022-08-25T04:10:29;29.00;71.60
6375;DHT22;35400;45.472;-122.822;2022-08-25T04:12:56;28.90;73.10
6375;DHT22;35400;45.472;-122.822;2022-08-25T04:15:23;28.90;72.70
6375;DHT22;35400;45.472;-122.822;2022-08-25T04:17:50;28.80;73.20
6375;DHT22;35400;45.472;-122.822;2022-08-25T04:20:17;28.80;74.20
6375;DHT22;35400;45.472;-122.822;2022-08-25T04:22:44;28.70;74.90
6375;DHT22;35400;45.472;-122.822;2022-08-25T04:25:11;28.70;75.50
6375;DHT22;35400;45.472;-122.822;2022-08-25T04:27:38;28.60;76.30
6375;DHT22;35400;45.472;-122.822;2022-08-25T04:30:06;28.50;76.60
6375;DHT22;35400;45.472;-122.822;2022-08-25T04:32:35;28.40;77.20
6375;DHT22;35400;45.472;-122.822;2022-08-25T04:35:02;28.40;77.90
6375;DHT22;35400;45.472;-122.822;2022-08-25T04:37:29;28.30;78.40
6375;DHT22;35400;45.472;-122.822;2022-08-25T04:39:56;28.20;78.90
6375;DHT22;35400;45.472;-122.822;2022-08-25T04:42:23;28.10;79.50
6375;DHT22;35400;45.472;-122.822;2022-08-25T04:44:51;28.10;80.60
6375;DHT22;35400;45.472;-122.822;2022-08-25T04:47:19;28.00;80.50
6375;DHT22;35400;45.472;-122.822;2022-08-25T04:49:46;27.90;81.20
6375;DHT22;35400;45.472;-122.822;2022-08-25T04:52:13;27.80;81.50
6375;DHT22;35400;45.472;-122.822;2022-08-25T04:54:40;27.80;82.10
6375;DHT22;35400;45.472;-122.822;2022-08-25T04:57:07;27.70;82.60
6375;DHT22;35400;45.472;-122.822;2022-08-25T04:59:34;27.60;83.00
6375;DHT22;35400;45.472;-122.822;2022-08-25T05:02:01;27.60;83.40
6375;DHT22;35400;45.472;-122.822;2022-08-25T05:04:31;27.50;83.80
6375;DHT22;35400;45.472;-122.822;2022-08-25T05:06:59;27.40;84.10
6375;DHT22;35400;45.472;-122.822;2022-08-25T05:09:26;27.40;84.50
6375;DHT22;35400;45.472;-122.822;2022-08-25T05:11:54;27.30;84.70
6375;DHT22;35400;45.472;-122.822;2022-08-25T05:14:21;27.30;85.10
6375;DHT22;35400;45.472;-122.822;2022-08-25T05:16:48;27.20;85.20
6375;DHT22;35400;45.472;-122.822;2022-08-25T05:19:15;27.10;85.70
6375;DHT22;35400;45.472;-122.822;2022-08-25T05:21:42;27.10;86.00
6375;DHT22;35400;45.472;-122.822;2022-08-25T05:24:09;27.00;86.20
6375;DHT22;35400;45.472;-122.822;2022-08-25T05:26:36;27.00;86.40
6375;DHT22;35400;45.472;-122.822;2022-08-25T05:29:04;26.90;86.70
6375;DHT22;35400;45.472;-122.822;2022-08-25T05:31:31;26.80;86.90
6375;DHT22;35400;45.472;-122.822;2022-08-25T05:33:59;26.80;87.10
6375;DHT22;35400;45.472;-122.822;2022-08-25T05:36:27;26.80;87.40
6375;DHT22;35400;45.472;-122.822;2022-08-25T05:38:54;26.70;87.70
6375;DHT22;35400;45.472;-122.822;2022-08-25T05:41:26;26.70;88.10
6375;DHT22;35400;45.472;-122.822;2022-08-25T05:43:53;26.60;88.10
6375;DHT22;35400;45.472;-122.822;2022-08-25T05:46:20;26.50;88.40
6375;DHT22;35400;45.472;-122.822;2022-08-25T05:48:48;26.50;89.00
6375;DHT22;35400;45.472;-122.822;2022-08-25T05:51:15;26.40;89.10
6375;DHT22;35400;45.472;-122.822;2022-08-25T05:53:45;26.40;89.30
6375;DHT22;35400;45.472;-122.822;2022-08-25T05:56:13;26.30;89.30
6375;DHT22;35400;45.472;-122.822;2022-08-25T05:58:41;26.20;89.80
6375;DHT22;35400;45.472;-122.822;2022-08-25T06:01:09;26.20;90.00
6375;DHT22;35400;45.472;-122.822;2022-08-25T06:03:54;26.10;90.10
6375;DHT22;35400;45.472;-122.822;2022-08-25T06:06:22;26.10;90.20
6375;DHT22;35400;45.472;-122.822;2022-08-25T06:08:49;26.00;90.30
6375;DHT22;35400;45.472;-122.822;2022-08-25T06:11:16;26.00;90.60
6375;DHT22;35400;45.472;-122.822;2022-08-25T06:13:43;25.90;90.70
6375;DHT22;35400;45.472;-122.822;2022-08-25T06:16:11;25.80;90.80
6375;DHT22;35400;45.472;-122.822;2022-08-25T06:18:38;25.80;90.80
6375;DHT22;35400;45.472;-122.822;2022-08-25T06:21:09;25.80;90.90
6375;DHT22;35400;45.472;-122.822;2022-08-25T06:23:38;25.70;91.00
6375;DHT22;35400;45.472;-122.822;2022-08-25T06:26:05;25.60;91.00
6375;DHT22;35400;45.472;-122.822;2022-08-25T06:28:32;25.60;91.10
6375;DHT22;35400;45.472;-122.822;2022-08-25T06:31:01;25.60;91.20
6375;DHT22;35400;45.472;-122.822;2022-08-25T06:33:28;25.50;91.30
6375;DHT22;35400;45.472;-122.822;2022-08-25T06:35:56;25.40;91.40
6375;DHT22;35400;45.472;-122.822;2022-08-25T06:38:23;25.40;91.50
6375;DHT22;35400;45.472;-122.822;2022-08-25T06:40:50;25.30;91.60
6375;DHT22;35400;45.472;-122.822;2022-08-25T06:43:19;25.30;91.70
6375;DHT22;35400;45.472;-122.822;2022-08-25T06:45:45;25.20;91.80
6375;DHT22;35400;45.472;-122.822;2022-08-25T06:48:14;25.20;92.30
6375;DHT22;35400;45.472;-122.822;2022-08-25T06:50:42;25.20;93.10
6375;DHT22;35400;45.472;-122.822;2022-08-25T06:53:10;25.10;93.10
6375;DHT22;35400;45.472;-122.822;2022-08-25T06:55:37;25.00;93.20
6375;DHT22;35400;45.472;-122.822;2022-08-25T06:58:04;25.00;92.60
6375;DHT22;35400;45.472;-122.822;2022-08-25T07:00:32;25.00;92.40
6375;DHT22;35400;45.472;-122.822;2022-08-25T07:02:58;24.90;92.40
6375;DHT22;35400;45.472;-122.822;2022-08-25T07:05:27;24.90;92.50
6375;DHT22;35400;45.472;-122.822;2022-08-25T07:07:54;24.90;92.60
6375;DHT22;35400;45.472;-122.822;2022-08-25T07:10:21;24.80;92.70
6375;DHT22;35400;45.472;-122.822;2022-08-25T07:12:48;24.80;92.80
6375;DHT22;35400;45.472;-122.822;2022-08-25T07:15:17;24.70;92.90
6375;DHT22;35400;45.472;-122.822;2022-08-25T07:17:43;24.70;93.20
6375;DHT22;35400;45.472;-122.822;2022-08-25T07:20:11;24.70;93.20
6375;DHT22;35400;45.472;-122.822;2022-08-25T07:22:38;24.60;93.10
6375;DHT22;35400;45.472;-122.822;2022-08-25T07:25:05;24.60;93.20
6375;DHT22;35400;45.472;-122.822;2022-08-25T07:27:32;24.60;93.30
6375;DHT22;35400;45.472;-122.822;2022-08-25T07:29:58;24.50;93.40
6375;DHT22;35400;45.472;-122.822;2022-08-25T07:32:24;24.50;93.60
6375;DHT22;35400;45.472;-122.822;2022-08-25T07:34:51;24.40;93.60
6375;DHT22;35400;45.472;-122.822;2022-08-25T07:37:36;24.30;93.60
6375;DHT22;35400;45.472;-122.822;2022-08-25T07:40:03;24.30;93.70
6375;DHT22;35400;45.472;-122.822;2022-08-25T07:42:30;24.30;93.90
6375;DHT22;35400;45.472;-122.822;2022-08-25T07:44:56;24.20;94.00
6375;DHT22;35400;45.472;-122.822;2022-08-25T07:47:22;24.20;94.00
6375;DHT22;35400;45.472;-122.822;2022-08-25T07:49:49;24.10;94.20
6375;DHT22;35400;45.472;-122.822;2022-08-25T07:52:16;24.10;94.70
6375;DHT22;35400;45.472;-122.822;2022-08-25T07:54:42;24.00;94.50
6375;DHT22;35400;45.472;-122.822;2022-08-25T07:57:09;24.00;94.80
6375;DHT22;35400;45.472;-122.822;2022-08-25T07:59:40;24.00;94.80
6375;DHT22;35400;45.472;-122.822;2022-08-25T08:02:09;23.90;95.00
6375;DHT22;35400;45.472;-122.822;2022-08-25T08:04:36;23.80;95.10
6375;DHT22;35400;45.472;-122.822;2022-08-25T08:07:04;23.80;95.30
6375;DHT22;35400;45.472;-122.822;2022-08-25T08:09:32;23.70;95.30
6375;DHT22;35400;45.472;-122.822;2022-08-25T08:11:58;23.70;95.50
6375;DHT22;35400;45.472;-122.822;2022-08-25T08:14:25;23.60;95.60
6375;DHT22;35400;45.472;-122.822;2022-08-25T08:16:52;23.60;95.80
6375;DHT22;35400;45.472;-122.822;2022-08-25T08:19:19;23.50;96.00
6375;DHT22;35400;45.472;-122.822;2022-08-25T08:21:47;23.40;96.20
6375;DHT22;35400;45.472;-122.822;2022-08-25T08:24:15;23.40;96.30
6375;DHT22;35400;45.472;-122.822;2022-08-25T08:26:42;23.40;96.40
6375;DHT22;35400;45.472;-122.822;2022-08-25T08:29:09;23.30;96.60
6375;DHT22;35400;45.472;-122.822;2022-08-25T08:31:36;23.30;96.90
6375;DHT22;35400;45.472;-122.822;2022-08-25T08:34:02;23.20;97.00
6375;DHT22;35400;45.472;-122.822;2022-08-25T08:36:29;23.20;97.10
6375;DHT22;35400;45.472;-122.822;2022-08-25T08:38:56;23.10;97.30
6375;DHT22;35400;45.472;-122.822;2022-08-25T08:46:45;22.90;97.80
6375;DHT22;35400;45.472;-122.822;2022-08-25T08:49:29;22.90;98.00
6375;DHT22;35400;45.472;-122.822;2022-08-25T08:52:00;22.80;98.20
6375;DHT22;35400;45.472;-122.822;2022-08-25T08:54:32;22.80;98.40
6375;DHT22;35400;45.472;-122.822;2022-08-25T08:59:41;22.70;98.80
6375;DHT22;35400;45.472;-122.822;2022-08-25T09:05:12;22.60;99.00
6375;DHT22;35400;45.472;-122.822;2022-08-25T09:07:48;22.60;99.20
6375;DHT22;35400;45.472;-122.822;2022-08-25T09:10:17;22.60;99.40
6375;DHT22;35400;45.472;-122.822;2022-08-25T09:20:02;22.40;99.90
6375;DHT22;35400;45.472;-122.822;2022-08-25T09:28:02;22.20;99.90
6375;DHT22;35400;45.472;-122.822;2022-08-25T09:30:40;22.20;99.90
6375;DHT22;35400;45.472;-122.822;2022-08-25T09:33:09;22.20;99.90
6375;DHT22;35400;45.472;-122.822;2022-08-25T09:35:39;22.10;99.90
6375;DHT22;35400;45.472;-122.822;2022-08-25T09:38:09;22.10;99.90
6375;DHT22;35400;45.472;-122.822;2022-08-25T09:40:42;22.00;99.90
6375;DHT22;35400;45.472;-122.822;2022-08-25T09:46:11;22.00;99.90
6375;DHT22;35400;45.472;-122.822;2022-08-25T09:48:47;21.90;99.90
6375;DHT22;35400;45.472;-122.822;2022-08-25T09:51:33;21.90;99.90
6375;DHT22;35400;45.472;-122.822;2022-08-25T09:56:32;21.80;99.90
6375;DHT22;35400;45.472;-122.822;2022-08-25T09:59:25;21.80;99.90
6375;DHT22;35400;45.472;-122.822;2022-08-25T10:01:56;21.80;99.90
6375;DHT22;35400;45.472;-122.822;2022-08-25T10:04:32;21.70;99.90
6375;DHT22;35400;45.472;-122.822;2022-08-25T10:07:18;21.70;99.90
6375;DHT22;35400;45.472;-122.822;2022-08-25T10:09:52;21.70;99.90
6375;DHT22;35400;45.472;-122.822;2022-08-25T10:12:46;21.60;99.90
6375;DHT22;35400;45.472;-122.822;2022-08-25T10:15:17;21.60;99.90
6375;DHT22;35400;45.472;-122.822;2022-08-25T10:17:44;21.60;99.90
6375;DHT22;35400;45.472;-122.822;2022-08-25T10:20:17;21.60;99.90
6375;DHT22;35400;45.472;-122.822;2022-08-25T10:22:46;21.50;99.90
6375;DHT22;35400;45.472;-122.822;2022-08-25T10:25:16;21.50;99.90
6375;DHT22;35400;45.472;-122.822;2022-08-25T10:30:50;21.40;99.90
6375;DHT22;35400;45.472;-122.822;2022-08-25T10:36:22;21.40;99.90
6375;DHT22;35400;45.472;-122.822;2022-08-25T10:38:57;21.40;99.90
6375;DHT22;35400;45.472;-122.822;2022-08-25T10:41:34;21.40;99.90
6375;DHT22;35400;45.472;-122.822;2022-08-25T10:47:29;21.30;99.90
6375;DHT22;35400;45.472;-122.822;2022-08-25T10:50:26;21.30;99.90
6375;DHT22;35400;45.472;-122.822;2022-08-25T10:52:58;21.30;99.90
6375;DHT22;35400;45.472;-122.822;2022-08-25T10:58:57;21.20;99.90
6375;DHT22;35400;45.472;-122.822;2022-08-25T11:04:13;21.20;99.90
6375;DHT22;35400;45.472;-122.822;2022-08-25T11:06:51;21.10;99.90
6375;DHT22;35400;45.472;-122.822;2022-08-25T11:09:27;21.10;99.90
6375;DHT22;35400;45.472;-122.822;2022-08-25T11:14:49;21.00;99.90
6375;DHT22;35400;45.472;-122.822;2022-08-25T11:17:53;21.00;99.90
6375;DHT22;35400;45.472;-122.822;2022-08-25T11:23:26;20.90;99.90
6375;DHT22;35400;45.472;-122.822;2022-08-25T11:26:11;20.90;99.90
6375;DHT22;35400;45.472;-122.822;2022-08-25T11:29:02;20.80;99.90
6375;DHT22;35400;45.472;-122.822;2022-08-25T11:31:30;20.80;99.90
6375;DHT22;35400;45.472;-122.822;2022-08-25T11:34:05;20.80;99.90
6375;DHT22;35400;45.472;-122.822;2022-08-25T11:36:36;20.80;99.90
6375;DHT22;35400;45.472;-122.822;2022-08-25T11:41:53;20.70;99.90
6375;DHT22;35400;45.472;-122.822;2022-08-25T11:44:47;20.70;99.90
6375;DHT22;35400;45.472;-122.822;2022-08-25T11:47:49;20.60;99.90
6375;DHT22;35400;45.472;-122.822;2022-08-25T11:50:28;20.60;99.90
6375;DHT22;35400;45.472;-122.822;2022-08-25T11:53:21;20.50;99.90
6375;DHT22;35400;45.472;-122.822;2022-08-25T11:55:51;20.50;99.90
6375;DHT22;35400;45.472;-122.822;2022-08-25T11:58:45;20.50;99.90
6375;DHT22;35400;45.472;-122.822;2022-08-25T12:12:39;20.30;99.90
6375;DHT22;35400;45.472;-122.822;2022-08-25T12:23:38;20.10;99.90
6375;DHT22;35400;45.472;-122.822;2022-08-25T12:28:47;20.00;99.90
6375;DHT22;35400;45.472;-122.822;2022-08-25T12:34:35;20.00;99.90
6375;DHT22;35400;45.472;-122.822;2022-08-25T12:37:14;20.00;99.90
6375;DHT22;35400;45.472;-122.822;2022-08-25T12:39:51;19.90;99.90
6375;DHT22;35400;45.472;-122.822;2022-08-25T12:42:29;19.90;99.90
6375;DHT22;35400;45.472;-122.822;2022-08-25T12:47:36;19.80;99.90
6375;DHT22;35400;45.472;-122.822;2022-08-25T12:50:40;19.80;99.90
6375;DHT22;35400;45.472;-122.822;2022-08-25T12:53:18;19.80;99.90
6375;DHT22;35400;45.472;-122.822;2022-08-25T12:55:56;19.70;99.90
6375;DHT22;35400;45.472;-122.822;2022-08-25T12:58:32;19.70;99.90
6375;DHT22;35400;45.472;-122.822;2022-08-25T13:01:13;19.70;99.90
6375;DHT22;35400;45.472;-122.822;2022-08-25T13:03:58;19.60;99.90
6375;DHT22;35400;45.472;-122.822;2022-08-25T13:06:43;19.60;99.90
6375;DHT22;35400;45.472;-122.822;2022-08-25T13:09:22;19.60;99.90
6375;DHT22;35400;45.472;-122.822;2022-08-25T13:12:08;19.50;99.90
6375;DHT22;35400;45.472;-122.822;2022-08-25T13:14:43;19.50;99.90
6375;DHT22;35400;45.472;-122.822;2022-08-25T13:17:11;19.50;99.90
6375;DHT22;35400;45.472;-122.822;2022-08-25T13:19:49;19.50;99.90
6375;DHT22;35400;45.472;-122.822;2022-08-25T13:22:17;19.40;99.90
6375;DHT22;35400;45.472;-122.822;2022-08-25T13:24:47;19.40;99.90
6375;DHT22;35400;45.472;-122.822;2022-08-25T13:27:26;19.40;99.90
6375;DHT22;35400;45.472;-122.822;2022-08-25T13:29:56;19.30;99.90
6375;DHT22;35400;45.472;-122.822;2022-08-25T13:32:27;19.30;99.90
6375;DHT22;35400;45.472;-122.822;2022-08-25T13:35:30;19.30;99.90
6375;DHT22;35400;45.472;-122.822;2022-08-25T13:38:17;19.30;99.90
6375;DHT22;35400;45.472;-122.822;2022-08-25T13:40:44;19.30;99.90
6375;DHT22;35400;45.472;-122.822;2022-08-25T13:43:12;19.30;99.90
6375;DHT22;35400;45.472;-122.822;2022-08-25T13:45:43;19.30;99.90
6375;DHT22;35400;45.472;-122.822;2022-08-25T13:48:12;19.20;99.90
6375;DHT22;35400;45.472;-122.822;2022-08-25T13:50:41;19.20;99.90
6375;DHT22;35400;45.472;-122.822;2022-08-25T13:53:19;19.20;99.90
6375;DHT22;35400;45.472;-122.822;2022-08-25T13:55:56;19.20;99.90
6375;DHT22;35400;45.472;-122.822;2022-08-25T13:58:34;19.20;99.90
6375;DHT22;35400;45.472;-122.822;2022-08-25T14:01:15;19.30;99.90
6375;DHT22;35400;45.472;-122.822;2022-08-25T14:03:45;19.30;99.90
6375;DHT22;35400;45.472;-122.822;2022-08-25T14:08:44;19.30;99.90
6375;DHT22;35400;45.472;-122.822;2022-08-25T14:14:02;19.30;99.90
6375;DHT22;35400;45.472;-122.822;2022-08-25T14:16:32;19.30;99.90
6375;DHT22;35400;45.472;-122.822;2022-08-25T14:19:03;19.40;99.90
6375;DHT22;35400;45.472;-122.822;2022-08-25T14:21:31;19.40;99.90
6375;DHT22;35400;45.472;-122.822;2022-08-25T14:23:59;19.40;99.90
6375;DHT22;35400;45.472;-122.822;2022-08-25T14:26:26;19.50;99.90
6375;DHT22;35400;45.472;-122.822;2022-08-25T14:28:52;19.50;99.90
6375;DHT22;35400;45.472;-122.822;2022-08-25T14:31:26;19.50;99.90
6375;DHT22;35400;45.472;-122.822;2022-08-25T14:33:57;19.50;99.90
6375;DHT22;35400;45.472;-122.822;2022-08-25T14:36:25;19.60;99.90
6375;DHT22;35400;45.472;-122.822;2022-08-25T14:38:52;19.60;99.90
6375;DHT22;35400;45.472;-122.822;2022-08-25T14:41:20;19.70;99.90
6375;DHT22;35400;45.472;-122.822;2022-08-25T14:43:47;19.80;99.90
6375;DHT22;35400;45.472;-122.822;2022-08-25T14:48:45;20.40;99.90
6375;DHT22;35400;45.472;-122.822;2022-08-25T14:51:13;20.70;99.90
6375;DHT22;35400;45.472;-122.822;2022-08-25T14:53:41;20.80;99.90
6375;DHT22;35400;45.472;-122.822;2022-08-25T14:56:09;21.10;99.90
6375;DHT22;35400;45.472;-122.822;2022-08-25T14:58:36;21.40;99.90
6375;DHT22;35400;45.472;-122.822;2022-08-25T15:01:02;21.70;99.90
6375;DHT22;35400;45.472;-122.822;2022-08-25T15:03:35;22.00;99.90
6375;DHT22;35400;45.472;-122.822;2022-08-25T15:06:03;22.40;99.90
6375;DHT22;35400;45.472;-122.822;2022-08-25T15:08:31;22.80;99.90
6375;DHT22;35400;45.472;-122.822;2022-08-25T15:11:16;23.00;99.90
6375;DHT22;35400;45.472;-122.822;2022-08-25T15:13:43;23.20;99.90
6375;DHT22;35400;45.472;-122.822;2022-08-25T15:16:32;23.10;99.90
6375;DHT22;35400;45.472;-122.822;2022-08-25T15:18:59;23.20;99.90
6375;DHT22;35400;45.472;-122.822;2022-08-25T15:21:26;23.30;99.90
6375;DHT22;35400;45.472;-122.822;2022-08-25T15:23:53;23.30;99.90
6375;DHT22;35400;45.472;-122.822;2022-08-25T15:26:20;23.50;99.90
6375;DHT22;35400;45.472;-122.822;2022-08-25T15:28:48;23.60;99.90
6375;DHT22;35400;45.472;-122.822;2022-08-25T15:31:17;23.60;99.90
6375;DHT22;35400;45.472;-122.822;2022-08-25T15:33:45;23.60;99.90
6375;DHT22;35400;45.472;-122.822;2022-08-25T15:36:14;23.80;99.90
6375;DHT22;35400;45.472;-122.822;2022-08-25T15:38:43;24.00;99.90
6375;DHT22;35400;45.472;-122.822;2022-08-25T15:41:10;24.50;99.90
6375;DHT22;35400;45.472;-122.822;2022-08-25T15:43:38;25.10;99.90
6375;DHT22;35400;45.472;-122.822;2022-08-25T15:46:05;25.70;99.90
6375;DHT22;35400;45.472;-122.822;2022-08-25T15:48:32;26.50;99.90
6375;DHT22;35400;45.472;-122.822;2022-08-25T15:51:00;27.40;99.90
6375;DHT22;35400;45.472;-122.822;2022-08-25T15:53:28;28.30;99.90
6375;DHT22;35400;45.472;-122.822;2022-08-25T15:55:55;28.90;99.90
6375;DHT22;35400;45.472;-122.822;2022-08-25T15:58:22;29.00;99.90
6375;DHT22;35400;45.472;-122.822;2022-08-25T16:00:49;29.50;99.60
6375;DHT22;35400;45.472;-122.822;2022-08-25T16:03:16;30.40;99.60
6375;DHT22;35400;45.472;-122.822;2022-08-25T16:05:44;31.10;96.90
6375;DHT22;35400;45.472;-122.822;2022-08-25T16:08:11;31.30;99.90
6375;DHT22;35400;45.472;-122.822;2022-08-25T16:10:41;31.10;94.50
6375;DHT22;35400;45.472;-122.822;2022-08-25T16:13:09;30.70;93.40
6375;DHT22;35400;45.472;-122.822;2022-08-25T16:15:37;30.50;94.00
6375;DHT22;35400;45.472;-122.822;2022-08-25T16:18:05;30.50;94.60
6375;DHT22;35400;45.472;-122.822;2022-08-25T16:20:34;30.80;94.00
6375;DHT22;35400;45.472;-122.822;2022-08-25T16:23:01;31.70;93.40
6375;DHT22;35400;45.472;-122.822;2022-08-25T16:25:29;33.00;89.60
6375;DHT22;35400;45.472;-122.822;2022-08-25T16:27:56;33.50;85.70
6375;DHT22;35400;45.472;-122.822;2022-08-25T16:30:23;33.30;85.10
6375;DHT22;35400;45.472;-122.822;2022-08-25T16:32:49;32.90;85.00
6375;DHT22;35400;45.472;-122.822;2022-08-25T16:35:16;32.40;85.30
6375;DHT22;35400;45.472;-122.822;2022-08-25T16:37:43;31.90;85.40
6375;DHT22;35400;45.472;-122.822;2022-08-25T16:40:10;31.60;85.70
6375;DHT22;35400;45.472;-122.822;2022-08-25T16:42:39;31.50;86.00
6375;DHT22;35400;45.472;-122.822;2022-08-25T16:45:06;31.40;85.50
6375;DHT22;35400;45.472;-122.822;2022-08-25T16:47:35;31.30;85.30
6375;DHT22;35400;45.472;-122.822;2022-08-25T16:50:05;31.30;85.40
6375;DHT22;35400;45.472;-122.822;2022-08-25T16:52:34;31.20;85.10
6375;DHT22;35400;45.472;-122.822;2022-08-25T16:55:19;31.00;85.20